Time;durP1;ratioP1;P1;durP2;ratioP2;P2;SDS_P1;SDS_P2;PMS_P1;PMS_P2;Temp;Humidity;BMP_temperature;BMP_pressure;BME280_temperature;BME280_humidity;BME280_pressure;Samples;Min_cycle;Max_cycle;Signal;HPM_P1;HPM_P2
2023/05/20 00:02:14;;;;;;;1.70;0.28;;;20.90;67.80;;;;;;5089499;28;20044;-73
2023/05/20 00:04:42;;;;;;;1.48;0.65;;;20.90;67.70;;;;;;5084274;28;20412;-73
2023/05/20 00:07:09;;;;;;;2.38;0.85;;;20.90;67.80;;;;;;5085124;28;20055;-73
2023/05/20 00:09:39;;;;;;;1.40;0.90;;;20.90;67.70;;;;;;5088598;28;20058;-73
2023/05/20 00:12:06;;;;;;;;;;;20.90;67.80;;;;;;5088609;28;20044;-73
2023/05/20 00:14:34;;;;;;;1.17;0.20;;;20.90;67.70;;;;;;5087259;28;19947;-72
2023/05/20 00:17:01;;;;;;;1.67;0.70;;;20.90;67.70;;;;;;5083385;28;20036;-73
2023/05/20 00:19:28;;;;;;;1.52;0.80;;;20.90;67.70;;;;;;5089640;28;20488;-73
2023/05/20 00:21:56;;;;;;;1.05;0.75;;;20.90;67.70;;;;;;5082051;28;20083;-73
2023/05/20 00:24:23;;;;;;;1.40;0.70;;;20.90;67.70;;;;;;5085119;28;20074;-72
2023/05/20 00:26:50;;;;;;;1.45;0.80;;;20.90;67.70;;;;;;5087462;28;20161;-73
2023/05/20 00:29:17;;;;;;;2.00;0.30;;;20.80;67.70;;;;;;5088589;28;20142;-72
2023/05/20 00:31:45;;;;;;;1.30;1.00;;;20.80;67.70;;;;;;5078802;28;20049;-72
2023/05/20 00:34:12;;;;;;;2.15;0.80;;;20.80;67.70;;;;;;5082745;28;20058;-73
2023/05/20 00:36:39;;;;;;;1.20;0.22;;;20.80;67.70;;;;;;5089263;28;20538;-73
2023/05/20 00:39:06;;;;;;;2.90;1.10;;;20.80;67.70;;;;;;5085174;28;20428;-73
2023/05/20 00:41:34;;;;;;;1.45;0.82;;;20.80;68.30;;;;;;5085357;28;20052;-73
2023/05/20 00:44:01;;;;;;;1.20;0.50;;;20.80;67.70;;;;;;5088665;28;20469;-73
2023/05/20 00:46:28;;;;;;;1.20;0.70;;;20.80;67.70;;;;;;5084471;28;20048;-73
2023/05/20 00:48:57;;;;;;;1.75;0.85;;;20.80;67.70;;;;;;5087319;28;20497;-73
2023/05/20 00:51:25;;;;;;;1.80;1.00;;;20.80;67.70;;;;;;5080496;28;20058;-72
2023/05/20 00:53:52;;;;;;;1.08;0.60;;;20.80;67.70;;;;;;5082138;28;20389;-73
2023/05/20 00:56:20;;;;;;;1.38;0.30;;;20.80;67.70;;;;;;5075766;28;20059;-73
2023/05/20 00:58:47;;;;;;;1.92;1.08;;;20.80;67.70;;;;;;5082955;28;20320;-72
2023/05/20 01:01:14;;;;;;;1.52;0.70;;;20.70;67.70;;;;;;5085908;28;20055;-73
2023/05/20 01:03:41;;;;;;;2.38;0.32;;;20.70;67.70;;;;;;5087145;28;20074;-73
2023/05/20 01:06:09;;;;;;;1.13;0.28;;;20.80;67.70;;;;;;5083293;28;20048;-73
2023/05/20 01:08:36;;;;;;;1.63;0.32;;;20.70;67.70;;;;;;5086021;28;20048;-73
2023/05/20 01:11:08;;;;;;;2.22;1.05;;;20.70;67.70;;;;;;5087109;28;20067;-73
2023/05/20 01:13:39;;;;;;;1.45;0.25;;;20.70;67.70;;;;;;5086889;28;20047;-73
2023/05/20 01:16:08;;;;;;;1.35;0.20;;;20.70;67.70;;;;;;5078749;28;20055;-73
2023/05/20 01:18:36;;;;;;;1.70;0.35;;;20.70;67.70;;;;;;5086433;28;20113;-73
2023/05/20 01:21:04;;;;;;;1.13;0.70;;;20.80;67.70;;;;;;5082883;28;20048;-73
2023/05/20 01:23:37;;;;;;;1.52;0.30;;;20.70;67.70;;;;;;5086045;28;20055;-73
2023/05/20 01:26:05;;;;;;;1.83;0.30;;;20.70;67.70;;;;;;5081137;28;20512;-72
2023/05/20 01:28:32;;;;;;;0.93;0.20;;;20.70;67.60;;;;;;5086720;28;20048;-73
2023/05/20 01:31:01;;;;;;;1.58;0.60;;;20.70;67.60;;;;;;5083060;28;20066;-73
2023/05/20 01:33:29;;;;;;;1.63;0.30;;;20.70;67.60;;;;;;5083986;28;20063;-73
2023/05/20 01:35:58;;;;;;;2.03;0.82;;;20.70;67.60;;;;;;5091464;28;20099;-73
2023/05/20 01:38:25;;;;;;;1.52;0.20;;;20.70;67.60;;;;;;5091692;28;20051;-72
2023/05/20 01:40:55;;;;;;;1.25;0.32;;;20.70;67.60;;;;;;5089090;28;20050;-72
2023/05/20 01:43:22;;;;;;;3.13;0.40;;;20.70;67.60;;;;;;5091225;28;20032;-73
2023/05/20 01:45:49;;;;;;;1.40;0.40;;;20.70;67.60;;;;;;5090915;28;20063;-73
2023/05/20 01:48:16;;;;;;;1.35;0.22;;;20.70;67.60;;;;;;5084638;28;20071;-73
2023/05/20 01:50:43;;;;;;;1.65;0.30;;;20.70;67.60;;;;;;5090197;28;20036;-72
2023/05/20 01:53:12;;;;;;;1.20;0.40;;;20.70;67.60;;;;;;5089829;28;20056;-73
2023/05/20 01:55:39;;;;;;;1.50;0.40;;;20.70;67.60;;;;;;5092126;28;20051;-73
2023/05/20 01:58:07;;;;;;;1.15;0.20;;;20.70;67.60;;;;;;5090608;28;20048;-72
2023/05/20 02:00:34;;;;;;;1.23;0.90;;;20.70;67.60;;;;;;5086145;28;20051;-72
2023/05/20 02:03:02;;;;;;;1.08;0.50;;;20.60;67.50;;;;;;5087444;28;20087;-73
2023/05/20 02:05:29;;;;;;;1.40;0.47;;;20.70;67.60;;;;;;5088618;28;20051;-73
2023/05/20 02:07:56;;;;;;;1.23;0.32;;;20.70;67.60;;;;;;5088883;28;20515;-73
2023/05/20 02:10:23;;;;;;;1.15;0.32;;;20.70;67.60;;;;;;5090850;28;20055;-73
2023/05/20 02:12:50;;;;;;;1.25;0.57;;;20.60;67.50;;;;;;5089621;28;20051;-72
2023/05/20 02:15:18;;;;;;;2.03;0.80;;;20.60;67.50;;;;;;5084781;28;20052;-72
2023/05/20 02:17:46;;;;;;;1.35;0.30;;;20.60;67.50;;;;;;5086121;28;20048;-73
2023/05/20 02:20:13;;;;;;;1.23;0.20;;;20.60;67.50;;;;;;5090105;28;20052;-73
2023/05/20 02:22:40;;;;;;;1.45;0.75;;;20.60;67.50;;;;;;5084156;28;20503;-73
2023/05/20 02:25:09;;;;;;;1.00;0.50;;;20.60;67.50;;;;;;5089132;28;20493;-73
2023/05/20 02:27:36;;;;;;;1.27;0.70;;;20.60;67.50;;;;;;5090609;28;20130;-72
2023/05/20 02:30:03;;;;;;;1.40;0.30;;;20.60;67.50;;;;;;5083447;28;20055;-73
2023/05/20 02:32:32;;;;;;;1.33;0.30;;;20.60;67.50;;;;;;5089933;28;20055;-73
2023/05/20 02:34:59;;;;;;;0.85;0.57;;;20.60;67.50;;;;;;5090118;28;20052;-73
2023/05/20 02:37:27;;;;;;;1.33;0.43;;;20.60;67.50;;;;;;5091123;28;20059;-73
2023/05/20 02:39:55;;;;;;;1.67;0.57;;;20.60;67.50;;;;;;5088742;28;20066;-73
2023/05/20 02:42:21;;;;;;;1.38;0.85;;;20.60;67.50;;;;;;5088115;28;20053;-72
2023/05/20 02:44:48;;;;;;;0.90;0.32;;;20.60;67.50;;;;;;5085862;28;20475;-73
2023/05/20 02:47:15;;;;;;;1.45;0.60;;;20.60;67.50;;;;;;5089627;28;20432;-72
2023/05/20 02:49:44;;;;;;;1.00;0.32;;;20.60;67.50;;;;;;5083469;28;20512;-73
2023/05/20 02:52:11;;;;;;;1.35;0.65;;;20.60;67.50;;;;;;5082605;28;20093;-73
2023/05/20 02:54:38;;;;;;;1.20;0.20;;;20.60;67.50;;;;;;5088156;28;20048;-73
2023/05/20 02:57:05;;;;;;;1.73;0.82;;;20.60;67.50;;;;;;5081598;28;20139;-73
2023/05/20 02:59:32;;;;;;;0.85;0.30;;;20.50;67.40;;;;;;5076723;28;20123;-73
2023/05/20 03:01:59;;;;;;;0.88;0.30;;;20.60;67.50;;;;;;5089450;28;20054;-72
2023/05/20 03:04:26;;;;;;;0.80;0.20;;;20.60;67.50;;;;;;5081645;28;20043;-73
2023/05/20 03:06:56;;;;;;;1.55;0.77;;;20.60;67.50;;;;;;5084889;28;20479;-73
2023/05/20 03:09:23;;;;;;;;;;;20.60;67.50;;;;;;5088114;28;20040;-72
2023/05/20 03:11:50;;;;;;;2.00;0.90;;;20.60;67.40;;;;;;5089141;28;20441;-73
2023/05/20 03:14:17;;;;;;;1.65;0.90;;;20.50;67.40;;;;;;5088516;28;20040;-73
2023/05/20 03:16:44;;;;;;;1.08;0.52;;;20.60;67.50;;;;;;5090334;28;20130;-73
2023/05/20 03:19:11;;;;;;;1.02;0.20;;;20.60;67.50;;;;;;5087909;28;20070;-73
2023/05/20 03:21:38;;;;;;;1.05;0.68;;;20.50;67.40;;;;;;5087221;28;20052;-72
2023/05/20 03:24:07;;;;;;;1.38;0.88;;;20.50;67.50;;;;;;5083528;28;20062;-73
2023/05/20 03:26:36;;;;;;;1.33;0.20;;;20.50;67.40;;;;;;5088986;28;20051;-73
2023/05/20 03:29:04;;;;;;;1.65;0.75;;;20.50;67.50;;;;;;5084919;28;20047;-73
2023/05/20 03:31:31;;;;;;;1.13;0.20;;;20.60;67.50;;;;;;5083349;28;20052;-73
2023/05/20 03:33:58;;;;;;;1.67;0.30;;;20.50;67.40;;;;;;5087355;28;20047;-73
2023/05/20 03:36:25;;;;;;;1.83;0.30;;;20.50;67.40;;;;;;5088393;28;20044;-73
2023/05/20 03:38:52;;;;;;;1.92;0.22;;;20.50;67.40;;;;;;5088717;28;20087;-73
2023/05/20 03:41:21;;;;;;;1.35;0.77;;;20.50;67.40;;;;;;5087839;28;20044;-73
2023/05/20 03:43:48;;;;;;;1.25;0.10;;;20.50;67.40;;;;;;5087392;28;20477;-73
2023/05/20 03:46:15;;;;;;;1.45;0.10;;;20.50;67.40;;;;;;5089391;28;20040;-73
2023/05/20 03:48:42;;;;;;;0.80;0.50;;;20.50;67.40;;;;;;5083715;28;20086;-73
2023/05/20 03:51:09;;;;;;;0.80;0.20;;;20.50;67.40;;;;;;5087427;28;20048;-73
2023/05/20 03:53:36;;;;;;;1.10;0.40;;;20.50;67.40;;;;;;5089385;28;20450;-72
2023/05/20 03:56:03;;;;;;;1.05;0.10;;;20.50;67.40;;;;;;5089231;28;20055;-73
2023/05/20 03:58:32;;;;;;;1.20;0.65;;;20.50;67.40;;;;;;5081474;28;20096;-72
2023/05/20 04:00:59;;;;;;;2.00;0.95;;;20.50;67.40;;;;;;5089053;28;20408;-73
2023/05/20 04:03:27;;;;;;;1.88;0.98;;;20.50;67.40;;;;;;5084362;28;20817;-72
2023/05/20 04:05:54;;;;;;;1.58;0.60;;;20.50;67.40;;;;;;5080390;28;20136;-73
2023/05/20 04:08:24;;;;;;;1.17;0.47;;;20.50;67.40;;;;;;5089633;28;20733;-73
2023/05/20 04:10:51;;;;;;;1.48;0.43;;;20.50;67.40;;;;;;5088020;28;20511;-73
2023/05/20 04:13:18;;;;;;;1.60;0.75;;;20.50;67.40;;;;;;5089113;28;20131;-73
2023/05/20 04:15:47;;;;;;;0.80;0.20;;;20.50;67.40;;;;;;5083987;28;20043;-73
2023/05/20 04:18:14;;;;;;;1.10;0.50;;;20.50;67.40;;;;;;5086574;28;20056;-73
2023/05/20 04:20:41;;;;;;;1.05;0.20;;;20.50;67.40;;;;;;5079323;28;20048;-73
2023/05/20 04:23:08;;;;;;;1.80;0.50;;;20.40;67.30;;;;;;5084753;28;20059;-73
2023/05/20 04:25:35;;;;;;;1.40;0.93;;;20.50;67.40;;;;;;5084986;28;20047;-72
2023/05/20 04:28:03;;;;;;;1.20;0.50;;;20.50;67.40;;;;;;5086171;28;20044;-73
2023/05/20 04:30:32;;;;;;;0.65;0.20;;;20.50;67.70;;;;;;5088985;28;20048;-72
2023/05/20 04:33:01;;;;;;;1.95;1.35;;;20.40;67.30;;;;;;5088381;28;20040;-73
2023/05/20 04:35:28;;;;;;;1.02;0.20;;;20.50;67.40;;;;;;5088417;28;20078;-73
2023/05/20 04:37:56;;;;;;;0.70;0.10;;;20.50;67.30;;;;;;5086934;28;20515;-73
2023/05/20 04:40:22;;;;;;;0.88;0.13;;;20.50;67.40;;;;;;5082477;28;20064;-73
2023/05/20 04:42:50;;;;;;;0.85;0.20;;;20.50;67.30;;;;;;5088884;28;20060;-73
2023/05/20 04:45:17;;;;;;;1.60;0.68;;;20.50;67.30;;;;;;5085527;28;20052;-72
2023/05/20 04:47:44;;;;;;;0.80;0.20;;;20.40;67.30;;;;;;5086547;28;20052;-72
2023/05/20 04:50:13;;;;;;;1.15;0.55;;;20.40;67.30;;;;;;5086942;28;20048;-72
2023/05/20 04:52:41;;;;;;;0.80;0.10;;;20.40;67.30;;;;;;5079868;28;20044;-73
2023/05/20 04:55:10;;;;;;;1.13;0.73;;;20.50;67.30;;;;;;5085893;28;20047;-73
2023/05/20 04:57:40;;;;;;;0.55;0.10;;;20.50;67.30;;;;;;5078003;28;20044;-72
2023/05/20 05:00:09;;;;;;;1.35;0.73;;;20.50;67.30;;;;;;5087047;28;20101;-72
2023/05/20 05:02:36;;;;;;;1.30;0.55;;;20.50;67.30;;;;;;5080826;28;20056;-72
2023/05/20 05:05:03;;;;;;;1.20;0.70;;;20.50;67.30;;;;;;5085782;28;20059;-73
2023/05/20 05:07:32;;;;;;;1.95;0.80;;;20.40;67.30;;;;;;5087458;28;20078;-72
2023/05/20 05:09:59;;;;;;;0.80;0.20;;;20.40;67.20;;;;;;5087072;28;20500;-73
2023/05/20 05:12:26;;;;;;;1.05;0.30;;;20.40;67.20;;;;;;5092336;28;20386;-73
2023/05/20 05:14:52;;;;;;;1.65;0.73;;;20.40;67.20;;;;;;5089128;28;20485;-72
2023/05/20 05:17:19;;;;;;;1.10;0.70;;;20.40;67.30;;;;;;5091491;28;20051;-73
2023/05/20 05:19:46;;;;;;;1.25;0.63;;;20.40;67.30;;;;;;5092104;28;20496;-73
2023/05/20 05:22:13;;;;;;;0.90;0.20;;;20.40;67.30;;;;;;5078737;28;20492;-73
2023/05/20 05:24:42;;;;;;;1.20;0.52;;;20.40;67.30;;;;;;5086514;28;20412;-72
2023/05/20 05:27:09;;;;;;;0.80;0.20;;;20.40;67.30;;;;;;5091324;28;20066;-72
2023/05/20 05:29:36;;;;;;;0.98;0.77;;;20.40;67.30;;;;;;5087177;28;20054;-73
2023/05/20 05:32:03;;;;;;;0.73;0.20;;;20.40;67.30;;;;;;5083536;28;20122;-73
2023/05/20 05:34:30;;;;;;;1.35;0.73;;;20.40;67.30;;;;;;5090045;28;20044;-73
2023/05/20 05:36:57;;;;;;;0.82;0.20;;;20.40;67.30;;;;;;5089841;28;20063;-73
2023/05/20 05:39:24;;;;;;;0.93;0.47;;;20.40;67.20;;;;;;5092078;28;20519;-73
2023/05/20 05:41:53;;;;;;;1.10;0.70;;;20.40;67.20;;;;;;5092782;28;20048;-73
2023/05/20 05:44:20;;;;;;;1.02;0.30;;;20.40;67.30;;;;;;5091970;28;20090;-73
2023/05/20 05:46:46;;;;;;;1.13;0.70;;;20.40;67.20;;;;;;5089746;28;20423;-73
2023/05/20 05:49:13;;;;;;;0.98;0.60;;;20.40;67.20;;;;;;5089582;28;20040;-72
2023/05/20 05:51:40;;;;;;;1.48;0.70;;;20.40;67.20;;;;;;5091549;28;20054;-73
2023/05/20 05:54:07;;;;;;;1.25;0.20;;;20.40;67.20;;;;;;5091722;28;20136;-73
2023/05/20 05:56:34;;;;;;;1.10;0.47;;;20.40;67.20;;;;;;5087121;28;20054;-73
2023/05/20 05:59:03;;;;;;;1.45;0.70;;;20.40;67.20;;;;;;5086948;28;20049;-73
2023/05/20 06:01:30;;;;;;;1.05;0.30;;;20.40;67.20;;;;;;5090310;28;20056;-73
2023/05/20 06:03:57;;;;;;;0.70;0.38;;;20.40;67.20;;;;;;5087431;28;20516;-73
2023/05/20 06:06:24;;;;;;;0.88;0.30;;;20.40;67.20;;;;;;5084507;28;20041;-73
2023/05/20 06:08:51;;;;;;;1.10;0.10;;;20.40;67.20;;;;;;5091819;28;20040;-73
2023/05/20 06:11:19;;;;;;;1.17;0.50;;;20.40;67.10;;;;;;5078574;28;20063;-72
2023/05/20 06:13:46;;;;;;;1.05;0.20;;;20.40;67.20;;;;;;5090799;28;20056;-73
2023/05/20 06:16:15;;;;;;;0.57;0.10;;;20.40;67.20;;;;;;5091679;28;20059;-73
2023/05/20 06:18:42;;;;;;;2.05;0.73;;;20.40;67.20;;;;;;5090955;28;20060;-73
2023/05/20 06:21:09;;;;;;;1.10;0.68;;;20.40;67.20;;;;;;5086867;28;20151;-73
2023/05/20 06:23:36;;;;;;;1.17;0.65;;;20.50;67.20;;;;;;5089541;28;20436;-73
2023/05/20 06:26:03;;;;;;;1.48;0.40;;;20.40;67.20;;;;;;5090823;28;20052;-72
2023/05/20 06:28:30;;;;;;;1.30;0.70;;;20.50;67.20;;;;;;5089732;28;20100;-73
2023/05/20 06:30:58;;;;;;;0.63;0.22;;;20.40;67.20;;;;;;5089116;28;20385;-73
2023/05/20 06:33:27;;;;;;;0.82;0.43;;;20.40;67.20;;;;;;5088997;28;20416;-73
2023/05/20 06:35:55;;;;;;;1.00;0.68;;;20.50;67.20;;;;;;5089338;28;20062;-73
2023/05/20 06:38:22;;;;;;;0.80;0.10;;;20.40;67.10;;;;;;5085658;28;20050;-73
2023/05/20 06:40:49;;;;;;;1.13;0.52;;;20.50;67.20;;;;;;5089629;28;20059;-73
2023/05/20 06:43:17;;;;;;;1.08;0.30;;;20.40;67.10;;;;;;5086554;28;20496;-73
2023/05/20 06:45:44;;;;;;;0.93;0.20;;;20.50;67.20;;;;;;5089805;28;20048;-73
2023/05/20 06:48:11;;;;;;;0.90;0.10;;;20.50;67.20;;;;;;5084389;28;20054;-73
2023/05/20 06:50:39;;;;;;;1.17;0.55;;;20.50;67.20;;;;;;5090234;28;20048;-72
2023/05/20 06:53:07;;;;;;;1.42;0.63;;;20.50;67.20;;;;;;5086709;28;20507;-73
2023/05/20 06:55:34;;;;;;;1.40;0.65;;;20.50;67.20;;;;;;5074494;28;20052;-73
2023/05/20 06:58:01;;;;;;;1.30;0.20;;;20.50;67.20;;;;;;5085289;28;20056;-72
2023/05/20 07:00:28;;;;;;;0.82;0.20;;;20.50;67.20;;;;;;5090689;28;20040;-73
2023/05/20 07:02:55;;;;;;;1.00;0.47;;;20.50;67.10;;;;;;5090784;28;20056;-73
2023/05/20 07:05:23;;;;;;;0.65;0.10;;;20.50;67.10;;;;;;5088268;28;20044;-73
2023/05/20 07:07:51;;;;;;;0.93;0.13;;;20.50;67.10;;;;;;5090769;28;20814;-73
2023/05/20 07:10:18;;;;;;;0.90;0.40;;;20.50;67.10;;;;;;5090238;28;20056;-73
2023/05/20 07:12:45;;;;;;;0.60;0.10;;;20.50;67.10;;;;;;5079014;28;20076;-73
2023/05/20 07:15:12;;;;;;;1.65;0.22;;;20.50;67.10;;;;;;5085980;28;20048;-73
2023/05/20 07:17:39;;;;;;;1.00;0.20;;;20.50;67.10;;;;;;5081782;28;20059;-73
2023/05/20 07:20:08;;;;;;;0.98;0.20;;;20.50;67.10;;;;;;5087273;28;20050;-73
2023/05/20 07:22:34;;;;;;;1.55;0.25;;;20.50;67.10;;;;;;5084886;28;20059;-73
2023/05/20 07:25:03;;;;;;;0.90;0.43;;;20.50;67.10;;;;;;5090268;28;20052;-73
2023/05/20 07:27:30;;;;;;;0.70;0.32;;;20.60;67.10;;;;;;5081367;28;20064;-72
2023/05/20 07:29:57;;;;;;;0.90;0.50;;;20.60;67.10;;;;;;5086822;28;20052;-73
2023/05/20 07:32:24;;;;;;;1.15;0.45;;;20.60;67.10;;;;;;5087249;28;20060;-72
2023/05/20 07:34:51;;;;;;;1.00;0.43;;;20.60;67.10;;;;;;5080031;28;20058;-73
2023/05/20 07:37:18;;;;;;;1.00;0.50;;;20.60;67.10;;;;;;5088730;28;20059;-72
2023/05/20 07:39:45;;;;;;;1.10;0.40;;;20.60;67.10;;;;;;5082190;28;20056;-73
2023/05/20 07:42:13;;;;;;;1.05;0.65;;;20.60;67.10;;;;;;5089962;28;20096;-73
2023/05/20 07:44:40;;;;;;;0.90;0.43;;;20.50;67.00;;;;;;5082452;28;20504;-73
2023/05/20 07:47:07;;;;;;;0.93;0.50;;;20.60;67.00;;;;;;5078811;28;20059;-73
2023/05/20 07:49:34;;;;;;;1.50;0.55;;;20.60;67.00;;;;;;5087630;28;20059;-73
2023/05/20 07:52:01;;;;;;;1.00;0.60;;;20.60;67.00;;;;;;5088032;28;20052;-73
2023/05/20 07:54:28;;;;;;;0.88;0.32;;;20.60;67.00;;;;;;5088527;28;20397;-73
2023/05/20 07:56:55;;;;;;;1.27;0.20;;;20.60;67.00;;;;;;5087000;28;20048;-73
2023/05/20 07:59:24;;;;;;;1.00;0.20;;;20.60;66.90;;;;;;5085386;28;20059;-72
2023/05/20 08:01:51;;;;;;;0.82;0.10;;;20.60;67.50;;;;;;5083696;28;20618;-73
2023/05/20 08:04:18;;;;;;;0.65;0.10;;;20.60;66.90;;;;;;5077798;28;20052;-73
2023/05/20 08:06:45;;;;;;;1.08;0.57;;;20.60;66.90;;;;;;5089276;28;20044;-73
2023/05/20 08:09:12;;;;;;;1.20;0.60;;;20.60;67.50;;;;;;5088205;28;20044;-73
2023/05/20 08:11:39;;;;;;;1.00;0.45;;;20.60;66.90;;;;;;5088032;28;20055;-73
2023/05/20 08:14:06;;;;;;;0.43;0.08;;;20.60;66.90;;;;;;5080851;28;20539;-73
2023/05/20 08:16:36;;;;;;;1.25;0.80;;;20.70;66.90;;;;;;5087232;28;20063;-73
2023/05/20 08:19:03;;;;;;;1.33;0.17;;;20.60;66.90;;;;;;5089028;28;20044;-73
2023/05/20 08:21:30;;;;;;;1.00;0.70;;;20.70;66.90;;;;;;5077585;28;20087;-73
2023/05/20 08:23:57;;;;;;;1.42;0.52;;;20.60;66.80;;;;;;5084207;28;20431;-73
2023/05/20 08:26:25;;;;;;;0.85;0.47;;;20.70;66.80;;;;;;5086163;28;20051;-73
2023/05/20 08:28:52;;;;;;;1.02;0.47;;;20.70;66.90;;;;;;5085363;28;20070;-73
2023/05/20 08:31:19;;;;;;;0.77;0.10;;;20.70;66.90;;;;;;5079777;28;20579;-73
2023/05/20 08:33:48;;;;;;;0.75;0.30;;;20.70;66.80;;;;;;5088138;28;20044;-73
2023/05/20 08:36:14;;;;;;;1.10;0.47;;;20.70;66.80;;;;;;5088573;28;20044;-73
2023/05/20 08:38:42;;;;;;;1.00;0.50;;;20.70;66.80;;;;;;5085738;28;20051;-73
2023/05/20 08:41:09;;;;;;;0.90;0.40;;;20.70;67.40;;;;;;5086130;28;20106;-73
2023/05/20 08:43:37;;;;;;;1.33;0.52;;;20.70;66.80;;;;;;5083362;28;20043;-72
2023/05/20 08:46:05;;;;;;;0.68;0.20;;;20.70;66.80;;;;;;5086757;28;20044;-73
2023/05/20 08:48:35;;;;;;;1.33;1.10;;;20.80;66.80;;;;;;5088094;28;20044;-72
2023/05/20 08:51:04;;;;;;;1.13;0.57;;;20.80;66.80;;;;;;5080601;28;20036;-73
2023/05/20 08:53:31;;;;;;;0.75;0.13;;;20.80;66.80;;;;;;5077863;28;20056;-73
2023/05/20 08:56:02;;;;;;;1.10;0.50;;;20.80;66.80;;;;;;5087880;28;20040;-73
2023/05/20 08:58:29;;;;;;;0.90;0.35;;;20.70;66.80;;;;;;5082751;28;20501;-73
2023/05/20 09:00:57;;;;;;;0.95;0.65;;;20.80;66.80;;;;;;5082256;28;20049;-72
2023/05/20 09:03:24;;;;;;;0.90;0.40;;;20.80;66.80;;;;;;5084714;28;20488;-73
2023/05/20 09:05:52;;;;;;;0.70;0.10;;;20.80;66.80;;;;;;5089094;28;20052;-73
2023/05/20 09:08:25;;;;;;;1.05;0.70;;;20.80;66.80;;;;;;5086967;28;20044;-73
2023/05/20 09:10:53;;;;;;;1.17;0.77;;;20.80;66.80;;;;;;5087783;28;20052;-73
2023/05/20 09:13:20;;;;;;;1.33;0.70;;;20.80;66.80;;;;;;5082310;28;20054;-73
2023/05/20 09:15:47;;;;;;;1.00;0.60;;;20.80;66.80;;;;;;5076638;28;20508;-72
2023/05/20 09:18:14;;;;;;;1.10;0.32;;;20.80;66.70;;;;;;5088540;28;20045;-73
2023/05/20 09:20:41;;;;;;;0.60;0.10;;;20.80;66.80;;;;;;5079303;28;20051;-73
2023/05/20 09:23:10;;;;;;;0.80;0.35;;;20.80;66.70;;;;;;5087427;28;20052;-73
2023/05/20 09:25:38;;;;;;;1.00;0.40;;;20.90;66.80;;;;;;5087347;28;20060;-73
2023/05/20 09:28:05;;;;;;;0.90;0.30;;;20.90;66.70;;;;;;5077371;28;20048;-73
2023/05/20 09:30:33;;;;;;;1.38;0.50;;;20.90;66.70;;;;;;5078095;28;20500;-73
2023/05/20 09:33:03;;;;;;;0.70;0.40;;;20.90;66.70;;;;;;5087258;28;20040;-73
2023/05/20 09:35:30;;;;;;;0.82;0.45;;;20.90;66.70;;;;;;5082030;28;20048;-73
2023/05/20 09:37:58;;;;;;;0.47;0.25;;;20.90;66.70;;;;;;5087439;28;20047;-73
2023/05/20 09:40:26;;;;;;;1.25;0.60;;;20.90;66.60;;;;;;5088668;28;20052;-72
2023/05/20 09:42:57;;;;;;;0.60;0.32;;;21.00;66.70;;;;;;5086916;28;20493;-73
2023/05/20 09:45:24;;;;;;;0.77;0.40;;;20.90;66.70;;;;;;5084306;28;20417;-73
2023/05/20 09:47:52;;;;;;;1.00;0.82;;;21.00;66.70;;;;;;5085338;28;20413;-73
2023/05/20 09:50:21;;;;;;;0.88;0.30;;;21.00;66.70;;;;;;5079474;28;20079;-72
2023/05/20 09:52:49;;;;;;;0.70;0.40;;;21.00;66.70;;;;;;5086062;28;20059;-73
2023/05/20 09:55:18;;;;;;;0.60;0.10;;;21.00;66.70;;;;;;5084948;28;20090;-72
2023/05/20 09:57:45;;;;;;;1.08;0.60;;;21.00;66.60;;;;;;5088495;28;20109;-72
2023/05/20 10:00:16;;;;;;;0.60;0.10;;;21.10;66.70;;;;;;5087697;28;20086;-73
2023/05/20 10:02:45;;;;;;;0.55;0.10;;;21.00;66.70;;;;;;5085775;28;20048;-73
2023/05/20 10:05:17;;;;;;;1.08;0.50;;;21.10;66.70;;;;;;5089573;28;20052;-73
2023/05/20 10:07:59;;;;;;;0.90;0.10;;;21.10;66.70;;;;;;5088003;28;20060;-73
2023/05/20 10:10:34;;;;;;;0.73;0.10;;;21.10;66.70;;;;;;5090447;28;20055;-72
2023/05/20 10:13:13;;;;;;;1.27;0.40;;;21.00;66.60;;;;;;5089451;28;20444;-72
2023/05/20 10:15:53;;;;;;;1.20;0.32;;;21.10;66.70;;;;;;5075326;28;20059;-73
2023/05/20 10:18:33;;;;;;;0.80;0.20;;;21.10;66.70;;;;;;5088851;28;20052;-73
2023/05/20 10:21:00;;;;;;;1.13;0.40;;;21.10;66.70;;;;;;5089112;28;20056;-73
2023/05/20 10:23:29;;;;;;;0.98;0.88;;;21.10;66.60;;;;;;5091363;28;20134;-73
2023/05/20 10:25:57;;;;;;;;;;;21.10;66.60;;;;;;5091887;28;20044;-73
2023/05/20 10:28:31;;;;;;;1.17;0.73;;;21.10;66.60;;;;;;5085246;28;20284;-72
2023/05/20 10:31:00;;;;;;;0.75;0.10;;;21.10;66.60;;;;;;5089663;28;20052;-72
2023/05/20 10:33:28;;;;;;;0.73;0.22;;;21.10;66.50;;;;;;5091309;28;20047;-73
2023/05/20 10:35:59;;;;;;;1.00;0.57;;;21.20;66.60;;;;;;5088014;28;20413;-72
2023/05/20 10:38:26;;;;;;;1.20;0.20;;;21.20;66.60;;;;;;5090027;28;20039;-73
2023/05/20 10:40:53;;;;;;;1.33;0.40;;;21.20;66.60;;;;;;5090786;28;20052;-73
2023/05/20 10:43:27;;;;;;;0.63;0.20;;;21.20;66.60;;;;;;5090125;28;20055;-72
2023/05/20 10:45:56;;;;;;;0.90;0.20;;;21.20;66.60;;;;;;5085127;28;20094;-73
2023/05/20 10:48:30;;;;;;;0.65;0.13;;;21.20;66.60;;;;;;5086774;28;20044;-73
2023/05/20 10:50:58;;;;;;;0.85;0.10;;;21.20;66.60;;;;;;5084666;28;20131;-73
2023/05/20 10:53:27;;;;;;;0.80;0.38;;;21.30;66.60;;;;;;5083326;28;20098;-73
2023/05/20 10:55:54;;;;;;;0.90;0.10;;;21.30;66.60;;;;;;5090911;28;20047;-73
2023/05/20 10:58:23;;;;;;;0.85;0.17;;;21.30;66.60;;;;;;5089145;28;20088;-72
2023/05/20 11:00:53;;;;;;;0.80;0.20;;;21.30;66.60;;;;;;5089321;28;20051;-73
2023/05/20 11:03:22;;;;;;;0.60;0.10;;;21.20;66.60;;;;;;5086552;28;20056;-73
2023/05/20 11:05:51;;;;;;;0.85;0.10;;;21.30;66.60;;;;;;5087636;28;20051;-72
2023/05/20 11:08:18;;;;;;;1.00;0.47;;;21.30;66.70;;;;;;5086543;28;20121;-72
2023/05/20 11:10:45;;;;;;;0.80;0.40;;;21.30;66.60;;;;;;5083193;28;20048;-73
2023/05/20 11:13:14;;;;;;;0.50;0.10;;;21.30;66.60;;;;;;5080065;28;20060;-73
2023/05/20 11:15:42;;;;;;;0.95;0.60;;;21.30;66.60;;;;;;5090600;28;20048;-73
2023/05/20 11:18:11;;;;;;;0.85;0.15;;;21.30;66.60;;;;;;5090133;28;20506;-73
2023/05/20 11:20:38;;;;;;;0.85;0.35;;;21.30;66.60;;;;;;5088873;28;20052;-73
2023/05/20 11:23:12;;;;;;;0.93;0.40;;;21.40;66.70;;;;;;5085311;28;20052;-73
2023/05/20 11:25:39;;;;;;;1.20;0.50;;;21.40;66.70;;;;;;5105238;28;20059;-73
2023/05/20 11:28:12;;;;;;;0.77;0.50;;;21.40;66.60;;;;;;5087636;28;20048;-73
2023/05/20 11:30:41;;;;;;;0.98;0.40;;;21.40;66.60;;;;;;5087093;28;20121;-73
2023/05/20 11:33:12;;;;;;;0.50;0.10;;;21.40;66.70;;;;;;5086018;28;20111;-73
2023/05/20 11:35:45;;;;;;;1.00;0.40;;;21.40;66.60;;;;;;5088121;28;20511;-73
2023/05/20 11:38:14;;;;;;;1.10;0.52;;;21.40;66.60;;;;;;5089684;28;20048;-73
2023/05/20 11:40:45;;;;;;;0.85;0.22;;;21.40;66.60;;;;;;5083002;28;20056;-73
2023/05/20 11:43:13;;;;;;;1.00;0.40;;;21.40;66.60;;;;;;5088824;28;20520;-73
2023/05/20 11:45:41;;;;;;;0.68;0.17;;;21.40;66.70;;;;;;5089548;28;20048;-73
2023/05/20 11:48:08;;;;;;;0.90;0.50;;;21.40;66.60;;;;;;5083923;28;20032;-73
2023/05/20 11:50:39;;;;;;;0.80;0.47;;;21.50;66.70;;;;;;5087534;28;20526;-73
2023/05/20 11:53:08;;;;;;;0.60;0.47;;;21.50;66.70;;;;;;5080929;28;20056;-73
2023/05/20 11:55:45;;;;;;;0.90;0.10;;;21.50;66.70;;;;;;5087722;28;20055;-73
2023/05/20 11:58:15;;;;;;;1.13;0.47;;;21.50;66.70;;;;;;5087838;28;20054;-73
2023/05/20 12:00:42;;;;;;;1.10;0.15;;;21.50;66.70;;;;;;5086882;28;20047;-72
2023/05/20 12:03:10;;;;;;;1.08;0.63;;;21.50;66.70;;;;;;5089035;28;20056;-73
2023/05/20 12:05:38;;;;;;;0.50;0.10;;;21.50;66.70;;;;;;5086569;28;20055;-73
2023/05/20 12:08:05;;;;;;;1.02;0.60;;;21.50;66.70;;;;;;5089423;28;20399;-73
2023/05/20 12:10:32;;;;;;;0.88;0.10;;;21.60;66.70;;;;;;5089000;28;20060;-73
2023/05/20 12:13:02;;;;;;;0.85;0.43;;;21.60;66.70;;;;;;5088544;28;20503;-73
2023/05/20 12:15:29;;;;;;;0.30;0.00;;;21.60;66.70;;;;;;5078960;28;20098;-72
2023/05/20 12:17:56;;;;;;;1.20;0.22;;;21.60;66.70;;;;;;5087325;28;20048;-73
2023/05/20 12:20:25;;;;;;;0.55;0.10;;;21.60;66.60;;;;;;5085890;28;20448;-73
2023/05/20 12:22:52;;;;;;;0.70;0.30;;;21.60;66.70;;;;;;5083607;28;20052;-73
2023/05/20 12:25:20;;;;;;;0.95;0.13;;;21.60;66.70;;;;;;5084012;28;20054;-73
2023/05/20 12:27:49;;;;;;;1.20;0.82;;;21.60;66.70;;;;;;5088052;28;20113;-72
2023/05/20 12:30:19;;;;;;;0.73;0.50;;;21.70;66.70;;;;;;5086137;28;20162;-73
2023/05/20 12:32:48;;;;;;;0.90;0.47;;;21.70;66.70;;;;;;5075802;28;20075;-73
2023/05/20 12:35:15;;;;;;;1.30;0.52;;;21.70;66.70;;;;;;5078423;28;20048;-72
2023/05/20 12:37:43;;;;;;;0.60;0.10;;;21.70;66.80;;;;;;5087820;28;20055;-73
2023/05/20 12:40:12;;;;;;;1.05;0.20;;;21.70;66.70;;;;;;5084613;28;20559;-73
2023/05/20 12:42:40;;;;;;;1.00;0.63;;;21.70;66.70;;;;;;5086626;28;20077;-72
2023/05/20 12:45:08;;;;;;;0.40;0.10;;;21.70;66.70;;;;;;5081937;28;20044;-73
2023/05/20 12:47:37;;;;;;;1.15;0.77;;;21.70;66.70;;;;;;5086773;28;20101;-73
2023/05/20 12:50:05;;;;;;;0.70;0.43;;;21.70;66.70;;;;;;5084415;28;20052;-73
2023/05/20 12:52:32;;;;;;;0.90;0.22;;;21.70;66.80;;;;;;5082755;28;20386;-73